sensor_id;sensor_type;location;lat;lon;timestamp;P1;durP1;ratioP1;P2;durP2;ratioP2
14681;SDS011;7429;52.498;13.480;2022-10-03T00:04:44;17.07;;;5.50;;
14681;SDS011;7429;52.498;13.480;2022-10-03T00:08:03;25.43;;;5.93;;
14681;SDS011;7429;52.498;13.480;2022-10-03T00:11:21;25.30;;;6.33;;
14681;SDS011;7429;52.498;13.480;2022-10-03T00:14:38;26.53;;;6.50;;
14681;SDS011;7429;52.498;13.480;2022-10-03T00:17:58;25.93;;;6.03;;
14681;SDS011;7429;52.498;13.480;2022-10-03T00:21:20;21.80;;;9.33;;
14681;SDS011;7429;52.498;13.480;2022-10-03T00:24:39;20.73;;;6.00;;
14681;SDS011;7429;52.498;13.480;2022-10-03T00:27:54;22.13;;;5.77;;
14681;SDS011;7429;52.498;13.480;2022-10-03T00:31:11;19.67;;;5.77;;
14681;SDS011;7429;52.498;13.480;2022-10-03T00:34:19;22.70;;;7.20;;
14681;SDS011;7429;52.498;13.480;2022-10-03T00:37:42;18.87;;;4.97;;
14681;SDS011;7429;52.498;13.480;2022-10-03T00:44:41;23.67;;;6.80;;
14681;SDS011;7429;52.498;13.480;2022-10-03T00:48:53;18.70;;;4.83;;
14681;SDS011;7429;52.498;13.480;2022-10-03T00:52:37;20.20;;;6.17;;
14681;SDS011;7429;52.498;13.480;2022-10-03T00:55:57;18.90;;;6.50;;
14681;SDS011;7429;52.498;13.480;2022-10-03T00:59:19;24.97;;;6.93;;
14681;SDS011;7429;52.498;13.480;2022-10-03T01:02:43;18.53;;;5.50;;
14681;SDS011;7429;52.498;13.480;2022-10-03T01:06:09;23.47;;;6.73;;
14681;SDS011;7429;52.498;13.480;2022-10-03T01:09:30;14.20;;;5.67;;
14681;SDS011;7429;52.498;13.480;2022-10-03T01:12:52;29.30;;;7.53;;
14681;SDS011;7429;52.498;13.480;2022-10-03T01:16:12;24.60;;;6.13;;
14681;SDS011;7429;52.498;13.480;2022-10-03T01:23:04;29.90;;;7.60;;
14681;SDS011;7429;52.498;13.480;2022-10-03T01:26:52;16.67;;;5.37;;
14681;SDS011;7429;52.498;13.480;2022-10-03T01:30:02;21.70;;;5.87;;
14681;SDS011;7429;52.498;13.480;2022-10-03T01:33:26;25.13;;;5.93;;
14681;SDS011;7429;52.498;13.480;2022-10-03T01:36:37;18.90;;;5.90;;
14681;SDS011;7429;52.498;13.480;2022-10-03T01:39:48;22.03;;;6.90;;
14681;SDS011;7429;52.498;13.480;2022-10-03T01:43:02;14.53;;;5.20;;
14681;SDS011;7429;52.498;13.480;2022-10-03T01:46:16;14.40;;;5.03;;
14681;SDS011;7429;52.498;13.480;2022-10-03T01:49:26;16.43;;;6.33;;
14681;SDS011;7429;52.498;13.480;2022-10-03T01:52:38;20.23;;;6.33;;
14681;SDS011;7429;52.498;13.480;2022-10-03T01:55:53;15.57;;;5.17;;
14681;SDS011;7429;52.498;13.480;2022-10-03T01:59:04;17.67;;;5.90;;
14681;SDS011;7429;52.498;13.480;2022-10-03T02:02:21;14.60;;;4.80;;
14681;SDS011;7429;52.498;13.480;2022-10-03T02:05:35;19.10;;;5.50;;
14681;SDS011;7429;52.498;13.480;2022-10-03T02:08:45;19.33;;;5.20;;
14681;SDS011;7429;52.498;13.480;2022-10-03T02:12:03;24.97;;;6.83;;
14681;SDS011;7429;52.498;13.480;2022-10-03T02:15:12;15.87;;;5.40;;
14681;SDS011;7429;52.498;13.480;2022-10-03T02:18:25;17.63;;;5.40;;
14681;SDS011;7429;52.498;13.480;2022-10-03T02:21:44;19.77;;;4.93;;
14681;SDS011;7429;52.498;13.480;2022-10-03T02:24:51;17.90;;;5.37;;
14681;SDS011;7429;52.498;13.480;2022-10-03T02:28:24;17.10;;;5.33;;
14681;SDS011;7429;52.498;13.480;2022-10-03T02:39:36;19.37;;;5.53;;
14681;SDS011;7429;52.498;13.480;2022-10-03T02:43:08;20.77;;;5.63;;
14681;SDS011;7429;52.498;13.480;2022-10-03T02:47:00;21.37;;;4.87;;
14681;SDS011;7429;52.498;13.480;2022-10-03T02:50:43;15.23;;;4.97;;
14681;SDS011;7429;52.498;13.480;2022-10-03T02:54:31;23.93;;;5.03;;
14681;SDS011;7429;52.498;13.480;2022-10-03T02:58:15;20.23;;;5.33;;
14681;SDS011;7429;52.498;13.480;2022-10-03T03:02:06;16.83;;;5.27;;
14681;SDS011;7429;52.498;13.480;2022-10-03T03:05:51;14.17;;;5.83;;
14681;SDS011;7429;52.498;13.480;2022-10-03T03:13:24;19.07;;;6.23;;
14681;SDS011;7429;52.498;13.480;2022-10-03T03:20:27;17.50;;;4.83;;
14681;SDS011;7429;52.498;13.480;2022-10-03T03:23:45;18.23;;;5.40;;
14681;SDS011;7429;52.498;13.480;2022-10-03T03:27:24;12.90;;;5.43;;
14681;SDS011;7429;52.498;13.480;2022-10-03T03:30:42;18.20;;;6.40;;
14681;SDS011;7429;52.498;13.480;2022-10-03T03:33:55;19.93;;;5.40;;
14681;SDS011;7429;52.498;13.480;2022-10-03T03:37:08;19.60;;;5.90;;
14681;SDS011;7429;52.498;13.480;2022-10-03T03:44:06;16.37;;;5.27;;
14681;SDS011;7429;52.498;13.480;2022-10-03T03:47:35;15.37;;;5.73;;
14681;SDS011;7429;52.498;13.480;2022-10-03T03:51:00;12.90;;;6.73;;
14681;SDS011;7429;52.498;13.480;2022-10-03T03:54:29;25.87;;;5.47;;
14681;SDS011;7429;52.498;13.480;2022-10-03T03:58:14;20.30;;;5.30;;
14681;SDS011;7429;52.498;13.480;2022-10-03T04:01:46;14.43;;;5.13;;
14681;SDS011;7429;52.498;13.480;2022-10-03T04:05:11;20.90;;;6.80;;
14681;SDS011;7429;52.498;13.480;2022-10-03T04:12:08;17.43;;;5.90;;
14681;SDS011;7429;52.498;13.480;2022-10-03T04:15:33;16.30;;;4.80;;
14681;SDS011;7429;52.498;13.480;2022-10-03T04:18:56;15.27;;;5.27;;
14681;SDS011;7429;52.498;13.480;2022-10-03T04:22:07;20.83;;;5.90;;
14681;SDS011;7429;52.498;13.480;2022-10-03T04:25:45;14.67;;;5.33;;
14681;SDS011;7429;52.498;13.480;2022-10-03T04:29:16;24.20;;;6.23;;
14681;SDS011;7429;52.498;13.480;2022-10-03T04:32:50;19.70;;;5.73;;
14681;SDS011;7429;52.498;13.480;2022-10-03T04:39:41;14.17;;;5.40;;
14681;SDS011;7429;52.498;13.480;2022-10-03T04:42:56;14.93;;;4.60;;
14681;SDS011;7429;52.498;13.480;2022-10-03T04:46:14;16.77;;;4.33;;
14681;SDS011;7429;52.498;13.480;2022-10-03T04:49:29;16.53;;;5.07;;
14681;SDS011;7429;52.498;13.480;2022-10-03T04:52:41;16.27;;;5.97;;
14681;SDS011;7429;52.498;13.480;2022-10-03T04:55:52;16.83;;;4.97;;
14681;SDS011;7429;52.498;13.480;2022-10-03T04:59:10;19.07;;;5.93;;
14681;SDS011;7429;52.498;13.480;2022-10-03T05:02:34;18.70;;;5.00;;
14681;SDS011;7429;52.498;13.480;2022-10-03T05:05:47;17.93;;;7.40;;
14681;SDS011;7429;52.498;13.480;2022-10-03T05:08:58;19.40;;;6.00;;
14681;SDS011;7429;52.498;13.480;2022-10-03T05:12:14;14.60;;;5.63;;
14681;SDS011;7429;52.498;13.480;2022-10-03T05:15:23;17.17;;;5.20;;
14681;SDS011;7429;52.498;13.480;2022-10-03T05:18:33;16.57;;;6.10;;
14681;SDS011;7429;52.498;13.480;2022-10-03T05:21:43;16.43;;;5.67;;
14681;SDS011;7429;52.498;13.480;2022-10-03T05:24:56;20.50;;;7.10;;
14681;SDS011;7429;52.498;13.480;2022-10-03T05:28:06;13.20;;;5.13;;
14681;SDS011;7429;52.498;13.480;2022-10-03T05:31:24;15.47;;;5.77;;
14681;SDS011;7429;52.498;13.480;2022-10-03T05:34:44;13.37;;;5.90;;
14681;SDS011;7429;52.498;13.480;2022-10-03T05:38:09;16.83;;;5.63;;
14681;SDS011;7429;52.498;13.480;2022-10-03T05:41:31;16.67;;;4.70;;
14681;SDS011;7429;52.498;13.480;2022-10-03T05:44:39;16.70;;;6.73;;
14681;SDS011;7429;52.498;13.480;2022-10-03T05:47:47;18.73;;;5.00;;
14681;SDS011;7429;52.498;13.480;2022-10-03T05:51:01;17.10;;;6.10;;
14681;SDS011;7429;52.498;13.480;2022-10-03T05:54:46;13.53;;;5.43;;
14681;SDS011;7429;52.498;13.480;2022-10-03T05:58:12;15.83;;;4.80;;
14681;SDS011;7429;52.498;13.480;2022-10-03T06:02:00;18.63;;;5.20;;
14681;SDS011;7429;52.498;13.480;2022-10-03T06:05:29;19.97;;;5.27;;
14681;SDS011;7429;52.498;13.480;2022-10-03T06:08:43;17.73;;;6.57;;
14681;SDS011;7429;52.498;13.480;2022-10-03T06:12:00;16.27;;;4.87;;
14681;SDS011;7429;52.498;13.480;2022-10-03T06:15:16;19.60;;;6.03;;
14681;SDS011;7429;52.498;13.480;2022-10-03T06:26:15;15.13;;;5.90;;
14681;SDS011;7429;52.498;13.480;2022-10-03T06:29:54;18.63;;;6.40;;
14681;SDS011;7429;52.498;13.480;2022-10-03T06:37:11;15.93;;;4.53;;
14681;SDS011;7429;52.498;13.480;2022-10-03T06:40:49;17.97;;;5.40;;
14681;SDS011;7429;52.498;13.480;2022-10-03T06:44:36;17.33;;;5.60;;
14681;SDS011;7429;52.498;13.480;2022-10-03T06:52:29;21.60;;;4.93;;
14681;SDS011;7429;52.498;13.480;2022-10-03T07:00:07;14.23;;;4.73;;
14681;SDS011;7429;52.498;13.480;2022-10-03T07:03:29;22.07;;;5.17;;
14681;SDS011;7429;52.498;13.480;2022-10-03T07:07:07;17.77;;;5.77;;
14681;SDS011;7429;52.498;13.480;2022-10-03T07:10:50;16.47;;;6.60;;
14681;SDS011;7429;52.498;13.480;2022-10-03T07:14:28;19.77;;;8.17;;
14681;SDS011;7429;52.498;13.480;2022-10-03T07:18:03;17.67;;;7.33;;
14681;SDS011;7429;52.498;13.480;2022-10-03T07:22:02;20.60;;;5.43;;
14681;SDS011;7429;52.498;13.480;2022-10-03T07:37:00;12.93;;;4.67;;
14681;SDS011;7429;52.498;13.480;2022-10-03T07:40:58;19.67;;;5.53;;
14681;SDS011;7429;52.498;13.480;2022-10-03T07:44:31;15.90;;;4.57;;
14681;SDS011;7429;52.498;13.480;2022-10-03T07:48:37;16.63;;;5.07;;
14681;SDS011;7429;52.498;13.480;2022-10-03T07:55:49;14.83;;;4.27;;
14681;SDS011;7429;52.498;13.480;2022-10-03T07:59:19;16.17;;;4.93;;
14681;SDS011;7429;52.498;13.480;2022-10-03T08:03:01;23.53;;;4.93;;
14681;SDS011;7429;52.498;13.480;2022-10-03T08:06:50;19.70;;;5.03;;
14681;SDS011;7429;52.498;13.480;2022-10-03T08:10:14;19.73;;;4.87;;
14681;SDS011;7429;52.498;13.480;2022-10-03T08:13:51;21.33;;;6.37;;
14681;SDS011;7429;52.498;13.480;2022-10-03T08:21:03;17.53;;;4.30;;
14681;SDS011;7429;52.498;13.480;2022-10-03T08:24:19;16.53;;;4.70;;
14681;SDS011;7429;52.498;13.480;2022-10-03T08:27:43;11.63;;;3.97;;
14681;SDS011;7429;52.498;13.480;2022-10-03T08:31:32;14.53;;;5.27;;
14681;SDS011;7429;52.498;13.480;2022-10-03T08:35:30;15.97;;;5.57;;
14681;SDS011;7429;52.498;13.480;2022-10-03T08:39:11;14.87;;;4.13;;
14681;SDS011;7429;52.498;13.480;2022-10-03T08:42:32;18.67;;;4.50;;
14681;SDS011;7429;52.498;13.480;2022-10-03T08:46:27;19.37;;;5.57;;
14681;SDS011;7429;52.498;13.480;2022-10-03T08:50:24;14.17;;;4.63;;
14681;SDS011;7429;52.498;13.480;2022-10-03T08:54:05;15.13;;;3.93;;
14681;SDS011;7429;52.498;13.480;2022-10-03T08:57:24;12.70;;;4.63;;
14681;SDS011;7429;52.498;13.480;2022-10-03T09:01:16;11.83;;;4.83;;
14681;SDS011;7429;52.498;13.480;2022-10-03T09:08:24;19.13;;;5.27;;
14681;SDS011;7429;52.498;13.480;2022-10-03T09:11:51;11.67;;;5.47;;
14681;SDS011;7429;52.498;13.480;2022-10-03T09:15:34;16.47;;;5.13;;
14681;SDS011;7429;52.498;13.480;2022-10-03T09:19:53;13.27;;;4.83;;
14681;SDS011;7429;52.498;13.480;2022-10-03T09:27:07;19.03;;;7.00;;
14681;SDS011;7429;52.498;13.480;2022-10-03T09:30:36;13.73;;;4.27;;
14681;SDS011;7429;52.498;13.480;2022-10-03T09:34:03;19.47;;;5.20;;
14681;SDS011;7429;52.498;13.480;2022-10-03T09:37:41;21.33;;;5.20;;
14681;SDS011;7429;52.498;13.480;2022-10-03T09:41:22;15.00;;;4.60;;
14681;SDS011;7429;52.498;13.480;2022-10-03T09:44:46;15.00;;;4.88;;
14681;SDS011;7429;52.498;13.480;2022-10-03T09:51:42;16.53;;;5.33;;
14681;SDS011;7429;52.498;13.480;2022-10-03T09:55:03;14.90;;;4.20;;
14681;SDS011;7429;52.498;13.480;2022-10-03T09:58:41;15.73;;;4.78;;
14681;SDS011;7429;52.498;13.480;2022-10-03T10:02:14;17.00;;;4.70;;
14681;SDS011;7429;52.498;13.480;2022-10-03T10:06:01;15.30;;;4.85;;
14681;SDS011;7429;52.498;13.480;2022-10-03T10:09:51;11.73;;;4.57;;
14681;SDS011;7429;52.498;13.480;2022-10-03T10:13:32;14.47;;;4.27;;
14681;SDS011;7429;52.498;13.480;2022-10-03T10:17:14;14.18;;;4.70;;
14681;SDS011;7429;52.498;13.480;2022-10-03T10:21:13;17.70;;;4.88;;
14681;SDS011;7429;52.498;13.480;2022-10-03T10:24:49;13.20;;;4.32;;
14681;SDS011;7429;52.498;13.480;2022-10-03T10:28:33;14.90;;;5.28;;
14681;SDS011;7429;52.498;13.480;2022-10-03T10:32:37;13.95;;;5.57;;
14681;SDS011;7429;52.498;13.480;2022-10-03T10:36:44;18.40;;;5.13;;
14681;SDS011;7429;52.498;13.480;2022-10-03T10:41:01;13.32;;;6.18;;
14681;SDS011;7429;52.498;13.480;2022-10-03T10:45:22;15.00;;;4.05;;
14681;SDS011;7429;52.498;13.480;2022-10-03T10:57:01;10.70;;;4.65;;
14681;SDS011;7429;52.498;13.480;2022-10-03T11:00:36;13.43;;;4.40;;
14681;SDS011;7429;52.498;13.480;2022-10-03T11:04:07;10.48;;;3.72;;
14681;SDS011;7429;52.498;13.480;2022-10-03T11:07:41;10.52;;;3.60;;
14681;SDS011;7429;52.498;13.480;2022-10-03T11:11:43;14.25;;;3.92;;
14681;SDS011;7429;52.498;13.480;2022-10-03T11:15:48;17.27;;;3.95;;
14681;SDS011;7429;52.498;13.480;2022-10-03T11:19:34;10.48;;;4.00;;
14681;SDS011;7429;52.498;13.480;2022-10-03T11:23:37;9.98;;;3.53;;
14681;SDS011;7429;52.498;13.480;2022-10-03T11:31:09;12.07;;;4.45;;
14681;SDS011;7429;52.498;13.480;2022-10-03T11:34:57;11.15;;;4.85;;
14681;SDS011;7429;52.498;13.480;2022-10-03T11:38:31;14.95;;;5.28;;
14681;SDS011;7429;52.498;13.480;2022-10-03T11:41:39;9.57;;;3.80;;
14681;SDS011;7429;52.498;13.480;2022-10-03T11:44:51;16.15;;;5.15;;
14681;SDS011;7429;52.498;13.480;2022-10-03T11:48:05;16.38;;;4.93;;
14681;SDS011;7429;52.498;13.480;2022-10-03T11:51:36;10.90;;;4.00;;
14681;SDS011;7429;52.498;13.480;2022-10-03T11:54:44;11.27;;;3.78;;
14681;SDS011;7429;52.498;13.480;2022-10-03T11:57:54;14.27;;;3.63;;
14681;SDS011;7429;52.498;13.480;2022-10-03T12:01:21;8.07;;;3.30;;
14681;SDS011;7429;52.498;13.480;2022-10-03T12:04:38;10.93;;;3.83;;
14681;SDS011;7429;52.498;13.480;2022-10-03T12:07:56;7.65;;;3.42;;
14681;SDS011;7429;52.498;13.480;2022-10-03T12:11:34;6.38;;;3.20;;
14681;SDS011;7429;52.498;13.480;2022-10-03T12:14:45;10.73;;;3.25;;
14681;SDS011;7429;52.498;13.480;2022-10-03T12:17:53;12.20;;;3.35;;
14681;SDS011;7429;52.498;13.480;2022-10-03T12:21:08;10.73;;;4.45;;
14681;SDS011;7429;52.498;13.480;2022-10-03T12:24:22;9.02;;;3.58;;
14681;SDS011;7429;52.498;13.480;2022-10-03T12:27:30;13.82;;;4.22;;
14681;SDS011;7429;52.498;13.480;2022-10-03T12:30:41;9.48;;;3.72;;
14681;SDS011;7429;52.498;13.480;2022-10-03T12:33:50;11.95;;;4.90;;
14681;SDS011;7429;52.498;13.480;2022-10-03T12:37:05;9.95;;;4.03;;
14681;SDS011;7429;52.498;13.480;2022-10-03T12:40:27;11.80;;;3.42;;
14681;SDS011;7429;52.498;13.480;2022-10-03T12:43:37;12.55;;;4.18;;
14681;SDS011;7429;52.498;13.480;2022-10-03T12:46:56;14.95;;;4.10;;
14681;SDS011;7429;52.498;13.480;2022-10-03T12:50:20;9.00;;;3.05;;
14681;SDS011;7429;52.498;13.480;2022-10-03T12:53:41;15.20;;;3.90;;
14681;SDS011;7429;52.498;13.480;2022-10-03T12:57:01;15.15;;;3.70;;
14681;SDS011;7429;52.498;13.480;2022-10-03T13:00:29;13.90;;;3.53;;
14681;SDS011;7429;52.498;13.480;2022-10-03T13:03:38;4.45;;;2.55;;
14681;SDS011;7429;52.498;13.480;2022-10-03T13:06:54;8.23;;;3.30;;
14681;SDS011;7429;52.498;13.480;2022-10-03T13:10:18;8.70;;;2.88;;
14681;SDS011;7429;52.498;13.480;2022-10-03T13:13:32;7.13;;;3.22;;
14681;SDS011;7429;52.498;13.480;2022-10-03T13:16:56;9.10;;;3.55;;
14681;SDS011;7429;52.498;13.480;2022-10-03T13:20:09;11.38;;;3.10;;
14681;SDS011;7429;52.498;13.480;2022-10-03T13:23:21;8.82;;;3.15;;
14681;SDS011;7429;52.498;13.480;2022-10-03T13:26:38;7.47;;;2.97;;
14681;SDS011;7429;52.498;13.480;2022-10-03T13:29:54;9.07;;;3.10;;
14681;SDS011;7429;52.498;13.480;2022-10-03T13:33:09;11.82;;;3.60;;
14681;SDS011;7429;52.498;13.480;2022-10-03T13:36:20;8.00;;;3.13;;
14681;SDS011;7429;52.498;13.480;2022-10-03T13:39:28;9.02;;;3.40;;
14681;SDS011;7429;52.498;13.480;2022-10-03T13:42:48;13.32;;;3.30;;
14681;SDS011;7429;52.498;13.480;2022-10-03T13:45:53;7.10;;;2.90;;
14681;SDS011;7429;52.498;13.480;2022-10-03T13:48:58;7.93;;;3.38;;
14681;SDS011;7429;52.498;13.480;2022-10-03T13:52:13;9.40;;;3.00;;
14681;SDS011;7429;52.498;13.480;2022-10-03T13:55:35;7.07;;;2.72;;
14681;SDS011;7429;52.498;13.480;2022-10-03T13:58:50;8.43;;;2.40;;
14681;SDS011;7429;52.498;13.480;2022-10-03T14:02:01;6.80;;;2.58;;
14681;SDS011;7429;52.498;13.480;2022-10-03T14:05:28;6.50;;;2.83;;
14681;SDS011;7429;52.498;13.480;2022-10-03T14:12:21;7.78;;;2.80;;
14681;SDS011;7429;52.498;13.480;2022-10-03T14:15:54;9.15;;;3.78;;
14681;SDS011;7429;52.498;13.480;2022-10-03T14:19:06;9.82;;;3.20;;
14681;SDS011;7429;52.498;13.480;2022-10-03T14:22:24;6.53;;;3.03;;
14681;SDS011;7429;52.498;13.480;2022-10-03T14:25:44;10.00;;;2.97;;
14681;SDS011;7429;52.498;13.480;2022-10-03T14:28:56;11.45;;;4.75;;
14681;SDS011;7429;52.498;13.480;2022-10-03T14:32:07;11.13;;;3.38;;
14681;SDS011;7429;52.498;13.480;2022-10-03T14:35:45;10.80;;;3.85;;
14681;SDS011;7429;52.498;13.480;2022-10-03T14:39:02;9.50;;;3.40;;
14681;SDS011;7429;52.498;13.480;2022-10-03T14:45:49;6.93;;;3.10;;
14681;SDS011;7429;52.498;13.480;2022-10-03T14:48:57;11.82;;;3.65;;
14681;SDS011;7429;52.498;13.480;2022-10-03T14:52:04;7.03;;;2.95;;
14681;SDS011;7429;52.498;13.480;2022-10-03T14:55:13;11.05;;;3.63;;
14681;SDS011;7429;52.498;13.480;2022-10-03T14:58:21;10.93;;;5.43;;
14681;SDS011;7429;52.498;13.480;2022-10-03T15:01:28;10.65;;;3.40;;
14681;SDS011;7429;52.498;13.480;2022-10-03T15:04:33;11.20;;;4.43;;
14681;SDS011;7429;52.498;13.480;2022-10-03T15:07:42;12.75;;;3.95;;
14681;SDS011;7429;52.498;13.480;2022-10-03T15:10:48;21.35;;;4.07;;
14681;SDS011;7429;52.498;13.480;2022-10-03T15:13:54;9.40;;;3.38;;
14681;SDS011;7429;52.498;13.480;2022-10-03T15:17:03;8.32;;;4.00;;
14681;SDS011;7429;52.498;13.480;2022-10-03T15:20:21;12.55;;;3.55;;
14681;SDS011;7429;52.498;13.480;2022-10-03T15:23:29;10.05;;;3.25;;
14681;SDS011;7429;52.498;13.480;2022-10-03T15:26:35;13.80;;;3.60;;
14681;SDS011;7429;52.498;13.480;2022-10-03T15:29:40;11.38;;;3.58;;
14681;SDS011;7429;52.498;13.480;2022-10-03T15:32:44;11.75;;;4.18;;
14681;SDS011;7429;52.498;13.480;2022-10-03T15:35:52;7.95;;;3.58;;
14681;SDS011;7429;52.498;13.480;2022-10-03T15:39:00;6.78;;;3.15;;
14681;SDS011;7429;52.498;13.480;2022-10-03T15:42:14;11.02;;;3.65;;
14681;SDS011;7429;52.498;13.480;2022-10-03T15:45:25;9.05;;;3.33;;
14681;SDS011;7429;52.498;13.480;2022-10-03T15:48:33;9.00;;;3.47;;
14681;SDS011;7429;52.498;13.480;2022-10-03T15:51:37;11.68;;;3.22;;
14681;SDS011;7429;52.498;13.480;2022-10-03T15:54:43;14.65;;;4.20;;
14681;SDS011;7429;52.498;13.480;2022-10-03T15:57:50;10.32;;;3.15;;
14681;SDS011;7429;52.498;13.480;2022-10-03T16:00:59;10.63;;;4.05;;
14681;SDS011;7429;52.498;13.480;2022-10-03T16:04:11;9.82;;;4.18;;
14681;SDS011;7429;52.498;13.480;2022-10-03T16:07:22;11.43;;;3.95;;
14681;SDS011;7429;52.498;13.480;2022-10-03T16:10:35;8.77;;;3.95;;
14681;SDS011;7429;52.498;13.480;2022-10-03T16:13:52;10.80;;;3.75;;
14681;SDS011;7429;52.498;13.480;2022-10-03T16:17:13;11.18;;;3.97;;
14681;SDS011;7429;52.498;13.480;2022-10-03T16:20:21;12.30;;;3.83;;
14681;SDS011;7429;52.498;13.480;2022-10-03T16:23:31;8.57;;;3.28;;
14681;SDS011;7429;52.498;13.480;2022-10-03T16:26:39;6.68;;;4.05;;
14681;SDS011;7429;52.498;13.480;2022-10-03T16:29:53;11.32;;;5.97;;
14681;SDS011;7429;52.498;13.480;2022-10-03T16:33:19;9.50;;;4.50;;
14681;SDS011;7429;52.498;13.480;2022-10-03T16:36:30;9.95;;;3.60;;
14681;SDS011;7429;52.498;13.480;2022-10-03T16:39:45;12.27;;;4.53;;
14681;SDS011;7429;52.498;13.480;2022-10-03T16:42:57;13.05;;;5.32;;
14681;SDS011;7429;52.498;13.480;2022-10-03T16:46:10;11.25;;;4.38;;
14681;SDS011;7429;52.498;13.480;2022-10-03T16:49:28;18.67;;;4.35;;
14681;SDS011;7429;52.498;13.480;2022-10-03T16:52:56;13.13;;;4.70;;
14681;SDS011;7429;52.498;13.480;2022-10-03T16:56:04;13.13;;;4.03;;
14681;SDS011;7429;52.498;13.480;2022-10-03T16:59:10;15.52;;;4.43;;
14681;SDS011;7429;52.498;13.480;2022-10-03T17:02:18;8.88;;;3.80;;
14681;SDS011;7429;52.498;13.480;2022-10-03T17:05:25;8.40;;;3.17;;
14681;SDS011;7429;52.498;13.480;2022-10-03T17:08:30;7.32;;;3.92;;
14681;SDS011;7429;52.498;13.480;2022-10-03T17:11:45;11.82;;;4.40;;
14681;SDS011;7429;52.498;13.480;2022-10-03T17:14:54;11.55;;;4.35;;
14681;SDS011;7429;52.498;13.480;2022-10-03T17:18:08;10.77;;;4.05;;
14681;SDS011;7429;52.498;13.480;2022-10-03T17:21:26;9.90;;;4.72;;
14681;SDS011;7429;52.498;13.480;2022-10-03T17:24:36;9.02;;;4.50;;
14681;SDS011;7429;52.498;13.480;2022-10-03T17:27:47;7.43;;;3.72;;
14681;SDS011;7429;52.498;13.480;2022-10-03T17:30:53;10.52;;;4.32;;
14681;SDS011;7429;52.498;13.480;2022-10-03T17:34:07;10.00;;;4.88;;
14681;SDS011;7429;52.498;13.480;2022-10-03T17:37:18;8.27;;;4.60;;
14681;SDS011;7429;52.498;13.480;2022-10-03T17:40:50;6.57;;;3.97;;
14681;SDS011;7429;52.498;13.480;2022-10-03T17:44:17;10.32;;;5.22;;
14681;SDS011;7429;52.498;13.480;2022-10-03T17:47:31;16.47;;;3.93;;
14681;SDS011;7429;52.498;13.480;2022-10-03T17:50:47;7.20;;;3.63;;
14681;SDS011;7429;52.498;13.480;2022-10-03T17:53:57;4.80;;;2.78;;
14681;SDS011;7429;52.498;13.480;2022-10-03T17:57:05;9.18;;;3.45;;
14681;SDS011;7429;52.498;13.480;2022-10-03T18:00:19;7.32;;;4.40;;
14681;SDS011;7429;52.498;13.480;2022-10-03T18:03:25;6.67;;;4.17;;
14681;SDS011;7429;52.498;13.480;2022-10-03T18:09:57;9.77;;;3.37;;
14681;SDS011;7429;52.498;13.480;2022-10-03T18:13:08;7.50;;;3.30;;
14681;SDS011;7429;52.498;13.480;2022-10-03T18:16:26;6.07;;;3.13;;
14681;SDS011;7429;52.498;13.480;2022-10-03T18:19:41;5.83;;;2.87;;
14681;SDS011;7429;52.498;13.480;2022-10-03T18:23:08;6.63;;;3.13;;
14681;SDS011;7429;52.498;13.480;2022-10-03T18:26:39;8.77;;;3.37;;
14681;SDS011;7429;52.498;13.480;2022-10-03T18:29:46;7.33;;;3.03;;
14681;SDS011;7429;52.498;13.480;2022-10-03T18:32:54;5.87;;;2.80;;
14681;SDS011;7429;52.498;13.480;2022-10-03T18:35:59;6.70;;;3.00;;
14681;SDS011;7429;52.498;13.480;2022-10-03T18:39:13;9.80;;;3.30;;
14681;SDS011;7429;52.498;13.480;2022-10-03T18:42:19;6.97;;;3.33;;
14681;SDS011;7429;52.498;13.480;2022-10-03T18:45:28;7.50;;;3.90;;
14681;SDS011;7429;52.498;13.480;2022-10-03T18:48:38;7.87;;;3.20;;
14681;SDS011;7429;52.498;13.480;2022-10-03T18:52:10;10.83;;;3.60;;
14681;SDS011;7429;52.498;13.480;2022-10-03T18:55:21;8.63;;;3.40;;
14681;SDS011;7429;52.498;13.480;2022-10-03T18:58:30;12.37;;;3.50;;
14681;SDS011;7429;52.498;13.480;2022-10-03T19:01:39;7.03;;;4.97;;
14681;SDS011;7429;52.498;13.480;2022-10-03T19:04:55;9.00;;;5.33;;
14681;SDS011;7429;52.498;13.480;2022-10-03T19:08:07;7.93;;;3.80;;
14681;SDS011;7429;52.498;13.480;2022-10-03T19:11:15;6.70;;;3.80;;
14681;SDS011;7429;52.498;13.480;2022-10-03T19:14:27;11.47;;;3.80;;
14681;SDS011;7429;52.498;13.480;2022-10-03T19:17:34;7.13;;;3.77;;
14681;SDS011;7429;52.498;13.480;2022-10-03T19:20:51;10.30;;;5.67;;
14681;SDS011;7429;52.498;13.480;2022-10-03T19:23:58;9.00;;;5.43;;
14681;SDS011;7429;52.498;13.480;2022-10-03T19:27:10;8.80;;;6.57;;
14681;SDS011;7429;52.498;13.480;2022-10-03T19:30:17;10.27;;;5.33;;
14681;SDS011;7429;52.498;13.480;2022-10-03T19:33:23;13.30;;;7.10;;
14681;SDS011;7429;52.498;13.480;2022-10-03T19:36:31;8.20;;;5.20;;
14681;SDS011;7429;52.498;13.480;2022-10-03T19:39:37;8.50;;;6.23;;
14681;SDS011;7429;52.498;13.480;2022-10-03T19:42:43;12.73;;;6.50;;
14681;SDS011;7429;52.498;13.480;2022-10-03T19:45:52;11.70;;;5.17;;
14681;SDS011;7429;52.498;13.480;2022-10-03T19:49:15;10.27;;;4.97;;
14681;SDS011;7429;52.498;13.480;2022-10-03T19:52:33;9.53;;;5.17;;
14681;SDS011;7429;52.498;13.480;2022-10-03T19:55:41;7.57;;;5.20;;
14681;SDS011;7429;52.498;13.480;2022-10-03T19:58:47;11.10;;;4.80;;
14681;SDS011;7429;52.498;13.480;2022-10-03T20:02:02;13.47;;;4.20;;
14681;SDS011;7429;52.498;13.480;2022-10-03T20:05:08;10.47;;;4.60;;
14681;SDS011;7429;52.498;13.480;2022-10-03T20:08:22;11.23;;;3.97;;
14681;SDS011;7429;52.498;13.480;2022-10-03T20:11:31;12.70;;;4.57;;
14681;SDS011;7429;52.498;13.480;2022-10-03T20:14:42;7.83;;;4.67;;
14681;SDS011;7429;52.498;13.480;2022-10-03T20:17:45;12.97;;;5.83;;
14681;SDS011;7429;52.498;13.480;2022-10-03T20:20:52;12.07;;;5.20;;
14681;SDS011;7429;52.498;13.480;2022-10-03T20:23:58;8.27;;;5.80;;
14681;SDS011;7429;52.498;13.480;2022-10-03T20:27:07;9.90;;;4.57;;
14681;SDS011;7429;52.498;13.480;2022-10-03T20:30:23;14.67;;;6.50;;
14681;SDS011;7429;52.498;13.480;2022-10-03T20:33:33;14.03;;;5.17;;
14681;SDS011;7429;52.498;13.480;2022-10-03T20:36:38;9.20;;;4.40;;
14681;SDS011;7429;52.498;13.480;2022-10-03T20:39:47;11.37;;;4.83;;
14681;SDS011;7429;52.498;13.480;2022-10-03T20:42:52;11.97;;;5.23;;
14681;SDS011;7429;52.498;13.480;2022-10-03T20:46:19;10.83;;;5.20;;
14681;SDS011;7429;52.498;13.480;2022-10-03T20:49:26;13.10;;;5.57;;
14681;SDS011;7429;52.498;13.480;2022-10-03T20:52:33;11.77;;;5.23;;
14681;SDS011;7429;52.498;13.480;2022-10-03T20:55:40;10.30;;;4.80;;
14681;SDS011;7429;52.498;13.480;2022-10-03T20:58:50;9.57;;;4.67;;
14681;SDS011;7429;52.498;13.480;2022-10-03T21:01:57;9.50;;;5.17;;
14681;SDS011;7429;52.498;13.480;2022-10-03T21:05:09;15.17;;;5.23;;
14681;SDS011;7429;52.498;13.480;2022-10-03T21:08:20;10.20;;;4.03;;
14681;SDS011;7429;52.498;13.480;2022-10-03T21:11:27;10.80;;;4.43;;
14681;SDS011;7429;52.498;13.480;2022-10-03T21:14:33;11.00;;;3.73;;
14681;SDS011;7429;52.498;13.480;2022-10-03T21:17:37;11.87;;;5.10;;
14681;SDS011;7429;52.498;13.480;2022-10-03T21:20:43;11.43;;;4.30;;
14681;SDS011;7429;52.498;13.480;2022-10-03T21:23:48;13.17;;;4.47;;
14681;SDS011;7429;52.498;13.480;2022-10-03T21:27:00;16.50;;;4.87;;
14681;SDS011;7429;52.498;13.480;2022-10-03T21:30:13;6.50;;;4.83;;
14681;SDS011;7429;52.498;13.480;2022-10-03T21:33:19;12.03;;;4.80;;
14681;SDS011;7429;52.498;13.480;2022-10-03T21:36:44;12.03;;;4.10;;
14681;SDS011;7429;52.498;13.480;2022-10-03T21:39:57;14.07;;;5.70;;
14681;SDS011;7429;52.498;13.480;2022-10-03T21:43:17;12.20;;;4.87;;
14681;SDS011;7429;52.498;13.480;2022-10-03T21:46:33;7.70;;;4.67;;